Terminal Aerodrome Forecast
Issued by NWS Knoxville/Tri Cities, TN

Home | Current Version | Previous Version | Text Only | Print | Product List | Glossary On
Versions: 1 2 3 4 5 6 7 8 9 10 11 12 13 14 15 16 17 18 19 20 21 22 23 24 25 26 27 28 29 30 31 32 33 34
405
FTUS44 KMRX 261351 AAA
TAFCHA
TAF AMD
KCHA 261351Z 2614/2712 07005KT 6SM -SHRA BR BKN035 OVC060
     FM270100 34005KT P6SM -SHRA OVC025
     FM270900 34005KT P6SM BKN250=

USA.gov is the U.S. government's official web portal to all federal, state and local government web resources and services.